sensor_id;sensor_type;location;lat;lon;timestamp;pressure;altitude;pressure_sealevel;temperature;humidity
18275;BME280;19470;49.322;7.218;2023-04-16T00:02:21;98814.66;;;16.15;72.21
18275;BME280;19470;49.322;7.218;2023-04-16T00:04:48;98806.19;;;16.52;70.36
18275;BME280;19470;49.322;7.218;2023-04-16T00:07:15;98813.16;;;16.48;70.82
18275;BME280;19470;49.322;7.218;2023-04-16T00:09:41;98809.88;;;16.56;70.55
18275;BME280;19470;49.322;7.218;2023-04-16T00:12:07;98806.53;;;16.35;70.93
18275;BME280;19470;49.322;7.218;2023-04-16T00:14:34;98811.81;;;15.91;72.68
18275;BME280;19470;49.322;7.218;2023-04-16T00:17:00;98801.13;;;16.45;70.42
18275;BME280;19470;49.322;7.218;2023-04-16T00:19:28;98808.97;;;16.26;71.30
18275;BME280;19470;49.322;7.218;2023-04-16T00:21:55;98804.78;;;16.15;71.59
18275;BME280;19470;49.322;7.218;2023-04-16T00:24:21;98803.34;;;16.33;71.46
18275;BME280;19470;49.322;7.218;2023-04-16T00:26:48;98804.59;;;16.46;71.22
18275;BME280;19470;49.322;7.218;2023-04-16T00:29:14;98806.44;;;16.50;70.56
18275;BME280;19470;49.322;7.218;2023-04-16T00:31:41;98804.91;;;15.79;72.60
18275;BME280;19470;49.322;7.218;2023-04-16T00:34:07;98805.91;;;15.94;72.27
18275;BME280;19470;49.322;7.218;2023-04-16T00:36:35;98811.06;;;15.70;73.31
18275;BME280;19470;49.322;7.218;2023-04-16T00:39:02;98805.97;;;15.83;72.78
18275;BME280;19470;49.322;7.218;2023-04-16T00:41:28;98811.41;;;16.28;71.22
18275;BME280;19470;49.322;7.218;2023-04-16T00:43:55;98813.69;;;16.45;71.20
18275;BME280;19470;49.322;7.218;2023-04-16T00:46:22;98814.91;;;16.13;72.06
18275;BME280;19470;49.322;7.218;2023-04-16T00:48:50;98817.00;;;16.26;71.94
18275;BME280;19470;49.322;7.218;2023-04-16T00:51:18;98817.97;;;15.91;73.24
18275;BME280;19470;49.322;7.218;2023-04-16T00:53:46;98810.66;;;16.12;72.42
18275;BME280;19470;49.322;7.218;2023-04-16T00:56:13;98809.75;;;16.32;71.59
18275;BME280;19470;49.322;7.218;2023-04-16T00:58:40;98814.28;;;16.36;72.01
18275;BME280;19470;49.322;7.218;2023-04-16T01:01:06;98826.19;;;16.05;72.98
18275;BME280;19470;49.322;7.218;2023-04-16T01:03:37;98817.25;;;16.30;72.34
18275;BME280;19470;49.322;7.218;2023-04-16T01:06:05;98822.38;;;16.21;72.56
18275;BME280;19470;49.322;7.218;2023-04-16T01:08:32;98819.16;;;16.24;71.87
18275;BME280;19470;49.322;7.218;2023-04-16T01:11:00;98821.41;;;15.97;73.29
18275;BME280;19470;49.322;7.218;2023-04-16T01:13:26;98818.66;;;16.12;72.06
18275;BME280;19470;49.322;7.218;2023-04-16T01:15:53;98828.38;;;15.88;72.67
18275;BME280;19470;49.322;7.218;2023-04-16T01:18:21;98824.41;;;16.40;71.77
18275;BME280;19470;49.322;7.218;2023-04-16T01:20:49;98826.59;;;16.27;71.78
18275;BME280;19470;49.322;7.218;2023-04-16T01:23:16;98830.09;;;16.28;72.15
18275;BME280;19470;49.322;7.218;2023-04-16T01:25:43;98826.53;;;16.48;71.43
18275;BME280;19470;49.322;7.218;2023-04-16T01:28:10;98820.22;;;16.28;71.88
18275;BME280;19470;49.322;7.218;2023-04-16T01:30:37;98826.31;;;15.64;73.41
18275;BME280;19470;49.322;7.218;2023-04-16T01:33:03;98825.16;;;15.96;72.71
18275;BME280;19470;49.322;7.218;2023-04-16T01:35:30;98827.56;;;15.92;72.90
18275;BME280;19470;49.322;7.218;2023-04-16T01:37:58;98829.44;;;15.97;73.22
18275;BME280;19470;49.322;7.218;2023-04-16T01:40:24;98831.00;;;16.03;72.57
18275;BME280;19470;49.322;7.218;2023-04-16T01:42:51;98823.69;;;15.13;75.38
18275;BME280;19470;49.322;7.218;2023-04-16T01:45:18;98830.81;;;15.79;73.59
18275;BME280;19470;49.322;7.218;2023-04-16T01:47:45;98844.50;;;15.06;77.19
18275;BME280;19470;49.322;7.218;2023-04-16T01:50:12;98844.47;;;14.96;76.74
18275;BME280;19470;49.322;7.218;2023-04-16T01:52:38;98846.53;;;15.96;73.52
18275;BME280;19470;49.322;7.218;2023-04-16T01:55:07;98838.72;;;16.15;73.05
18275;BME280;19470;49.322;7.218;2023-04-16T01:57:33;98839.47;;;16.20;72.76
18275;BME280;19470;49.322;7.218;2023-04-16T02:00:00;98846.41;;;16.21;72.21
18275;BME280;19470;49.322;7.218;2023-04-16T02:02:28;98846.69;;;16.20;72.73
18275;BME280;19470;49.322;7.218;2023-04-16T02:04:55;98842.28;;;15.84;73.56
18275;BME280;19470;49.322;7.218;2023-04-16T02:07:22;98847.53;;;16.15;72.79
18275;BME280;19470;49.322;7.218;2023-04-16T02:09:49;98840.06;;;16.07;73.20
18275;BME280;19470;49.322;7.218;2023-04-16T02:12:17;98844.53;;;16.22;72.41
18275;BME280;19470;49.322;7.218;2023-04-16T02:14:44;98836.16;;;16.44;71.63
18275;BME280;19470;49.322;7.218;2023-04-16T02:17:11;98837.47;;;15.87;73.53
18275;BME280;19470;49.322;7.218;2023-04-16T02:19:37;98847.34;;;15.91;73.43
18275;BME280;19470;49.322;7.218;2023-04-16T02:22:04;98837.47;;;15.87;73.81
18275;BME280;19470;49.322;7.218;2023-04-16T02:24:31;98843.13;;;15.70;75.09
18275;BME280;19470;49.322;7.218;2023-04-16T02:26:57;98847.41;;;15.15;76.96
18275;BME280;19470;49.322;7.218;2023-04-16T02:29:25;98852.50;;;15.26;76.57
18275;BME280;19470;49.322;7.218;2023-04-16T02:31:51;98859.88;;;14.58;78.97
18275;BME280;19470;49.322;7.218;2023-04-16T02:34:18;98853.53;;;15.56;75.80
18275;BME280;19470;49.322;7.218;2023-04-16T02:36:44;98856.41;;;16.00;74.06
18275;BME280;19470;49.322;7.218;2023-04-16T02:39:11;98857.22;;;15.96;73.79
18275;BME280;19470;49.322;7.218;2023-04-16T02:41:37;98851.88;;;15.91;74.18
18275;BME280;19470;49.322;7.218;2023-04-16T02:44:04;98849.25;;;15.70;74.78
18275;BME280;19470;49.322;7.218;2023-04-16T02:46:32;98858.09;;;15.45;74.75
18275;BME280;19470;49.322;7.218;2023-04-16T02:48:59;98852.13;;;15.89;73.90
18275;BME280;19470;49.322;7.218;2023-04-16T02:51:25;98842.63;;;16.27;72.09
18275;BME280;19470;49.322;7.218;2023-04-16T02:53:52;98846.06;;;15.58;74.38
18275;BME280;19470;49.322;7.218;2023-04-16T02:56:18;98844.72;;;15.50;75.55
18275;BME280;19470;49.322;7.218;2023-04-16T02:58:45;98849.66;;;16.08;73.11
18275;BME280;19470;49.322;7.218;2023-04-16T03:01:11;98849.72;;;15.93;74.08
18275;BME280;19470;49.322;7.218;2023-04-16T03:03:39;98850.56;;;15.83;73.92
18275;BME280;19470;49.322;7.218;2023-04-16T03:06:06;98851.75;;;16.26;73.07
18275;BME280;19470;49.322;7.218;2023-04-16T03:08:32;98851.16;;;16.40;71.97
18275;BME280;19470;49.322;7.218;2023-04-16T03:10:59;98849.44;;;16.04;72.59
18275;BME280;19470;49.322;7.218;2023-04-16T03:13:25;98853.03;;;14.98;78.05
18275;BME280;19470;49.322;7.218;2023-04-16T03:15:52;98849.81;;;15.67;76.03
18275;BME280;19470;49.322;7.218;2023-04-16T03:18:18;98848.97;;;15.56;75.41
18275;BME280;19470;49.322;7.218;2023-04-16T03:20:50;98864.06;;;14.39;79.14
18275;BME280;19470;49.322;7.218;2023-04-16T03:23:16;98857.53;;;15.38;76.32
18275;BME280;19470;49.322;7.218;2023-04-16T03:25:43;98861.03;;;15.49;76.25
18275;BME280;19470;49.322;7.218;2023-04-16T03:28:12;98856.19;;;15.71;74.73
18275;BME280;19470;49.322;7.218;2023-04-16T03:30:38;98856.72;;;14.66;78.74
18275;BME280;19470;49.322;7.218;2023-04-16T03:33:05;98857.81;;;14.91;78.50
18275;BME280;19470;49.322;7.218;2023-04-16T03:35:31;98867.44;;;15.07;77.85
18275;BME280;19470;49.322;7.218;2023-04-16T03:37:59;98871.97;;;15.06;77.44
18275;BME280;19470;49.322;7.218;2023-04-16T03:40:25;98869.53;;;15.61;75.76
18275;BME280;19470;49.322;7.218;2023-04-16T03:42:52;98859.97;;;14.99;78.45
18275;BME280;19470;49.322;7.218;2023-04-16T03:45:18;98873.00;;;15.51;75.65
18275;BME280;19470;49.322;7.218;2023-04-16T03:47:45;98878.53;;;14.53;79.24
18275;BME280;19470;49.322;7.218;2023-04-16T03:50:16;98880.22;;;15.46;75.99
18275;BME280;19470;49.322;7.218;2023-04-16T03:52:42;98877.00;;;15.84;74.71
18275;BME280;19470;49.322;7.218;2023-04-16T03:55:12;98882.09;;;15.50;75.50
18275;BME280;19470;49.322;7.218;2023-04-16T03:57:39;98880.22;;;15.87;75.04
18275;BME280;19470;49.322;7.218;2023-04-16T04:00:06;98876.75;;;15.76;75.28
18275;BME280;19470;49.322;7.218;2023-04-16T04:02:33;98880.22;;;15.71;74.53
18275;BME280;19470;49.322;7.218;2023-04-16T04:04:59;98885.59;;;15.25;76.06
18275;BME280;19470;49.322;7.218;2023-04-16T04:07:26;98881.31;;;15.40;76.13
18275;BME280;19470;49.322;7.218;2023-04-16T04:09:52;98878.63;;;15.55;75.82
18275;BME280;19470;49.322;7.218;2023-04-16T04:12:20;98895.09;;;14.70;78.85
18275;BME280;19470;49.322;7.218;2023-04-16T04:14:47;98889.59;;;15.64;75.85
18275;BME280;19470;49.322;7.218;2023-04-16T04:17:13;98890.91;;;15.56;75.96
18275;BME280;19470;49.322;7.218;2023-04-16T04:19:40;98894.84;;;15.99;74.01
18275;BME280;19470;49.322;7.218;2023-04-16T04:22:06;98894.91;;;15.58;75.28
18275;BME280;19470;49.322;7.218;2023-04-16T04:24:33;98894.09;;;15.32;77.97
18275;BME280;19470;49.322;7.218;2023-04-16T04:27:00;98895.44;;;15.76;76.50
18275;BME280;19470;49.322;7.218;2023-04-16T04:29:28;98899.44;;;15.43;77.27
18275;BME280;19470;49.322;7.218;2023-04-16T04:31:55;98898.91;;;15.71;75.72
18275;BME280;19470;49.322;7.218;2023-04-16T04:34:23;98907.44;;;15.02;77.81
18275;BME280;19470;49.322;7.218;2023-04-16T04:36:49;98910.66;;;15.45;77.02
18275;BME280;19470;49.322;7.218;2023-04-16T04:39:16;98899.97;;;15.91;74.63
18275;BME280;19470;49.322;7.218;2023-04-16T04:41:44;98914.41;;;15.49;75.87
18275;BME280;19470;49.322;7.218;2023-04-16T04:44:11;98919.91;;;14.71;78.76
18275;BME280;19470;49.322;7.218;2023-04-16T04:46:39;98916.47;;;14.91;79.33
18275;BME280;19470;49.322;7.218;2023-04-16T04:49:06;98916.53;;;15.31;76.92
18275;BME280;19470;49.322;7.218;2023-04-16T04:51:32;98911.47;;;15.45;76.90
18275;BME280;19470;49.322;7.218;2023-04-16T04:53:59;98912.94;;;14.54;80.45
18275;BME280;19470;49.322;7.218;2023-04-16T04:56:25;98912.50;;;15.29;77.77
18275;BME280;19470;49.322;7.218;2023-04-16T04:58:53;98926.41;;;15.11;78.09
18275;BME280;19470;49.322;7.218;2023-04-16T05:01:20;98927.25;;;15.67;76.03
18275;BME280;19470;49.322;7.218;2023-04-16T05:03:47;98936.03;;;15.57;76.06
18275;BME280;19470;49.322;7.218;2023-04-16T05:06:14;98944.19;;;14.85;77.73
18275;BME280;19470;49.322;7.218;2023-04-16T05:08:41;98947.47;;;15.27;77.69
18275;BME280;19470;49.322;7.218;2023-04-16T05:11:07;98946.41;;;16.05;74.13
18275;BME280;19470;49.322;7.218;2023-04-16T05:13:34;98950.16;;;15.63;76.07
18275;BME280;19470;49.322;7.218;2023-04-16T05:16:00;98943.78;;;15.69;75.96
18275;BME280;19470;49.322;7.218;2023-04-16T05:18:27;98950.69;;;15.96;75.01
18275;BME280;19470;49.322;7.218;2023-04-16T05:20:55;98954.97;;;15.36;76.68
18275;BME280;19470;49.322;7.218;2023-04-16T05:23:21;98958.69;;;15.34;77.53
18275;BME280;19470;49.322;7.218;2023-04-16T05:25:48;98961.88;;;15.06;78.79
18275;BME280;19470;49.322;7.218;2023-04-16T05:28:14;98966.19;;;15.53;77.57
18275;BME280;19470;49.322;7.218;2023-04-16T05:30:41;98966.72;;;15.45;77.71
18275;BME280;19470;49.322;7.218;2023-04-16T05:33:07;98970.44;;;15.54;76.73
18275;BME280;19470;49.322;7.218;2023-04-16T05:35:34;98974.72;;;15.75;76.68
18275;BME280;19470;49.322;7.218;2023-04-16T05:38:01;98964.56;;;15.52;77.47
18275;BME280;19470;49.322;7.218;2023-04-16T05:40:29;98979.25;;;15.54;77.36
18275;BME280;19470;49.322;7.218;2023-04-16T05:42:56;98980.03;;;15.34;78.54
18275;BME280;19470;49.322;7.218;2023-04-16T05:45:22;98972.56;;;15.57;77.81
18275;BME280;19470;49.322;7.218;2023-04-16T05:47:49;98982.16;;;15.43;77.86
18275;BME280;19470;49.322;7.218;2023-04-16T05:50:16;98979.63;;;14.80;81.55
18275;BME280;19470;49.322;7.218;2023-04-16T05:52:42;98982.16;;;15.43;78.32
18275;BME280;19470;49.322;7.218;2023-04-16T05:55:10;98993.91;;;15.47;77.93
18275;BME280;19470;49.322;7.218;2023-04-16T05:57:36;98985.19;;;15.72;77.19
18275;BME280;19470;49.322;7.218;2023-04-16T06:00:04;98980.84;;;15.55;77.30
18275;BME280;19470;49.322;7.218;2023-04-16T06:02:31;98984.88;;;15.53;78.06
18275;BME280;19470;49.322;7.218;2023-04-16T06:04:57;98981.56;;;15.00;80.74
18275;BME280;19470;49.322;7.218;2023-04-16T06:07:24;98979.50;;;15.43;78.67
18275;BME280;19470;49.322;7.218;2023-04-16T06:09:50;98988.59;;;15.52;77.74
18275;BME280;19470;49.322;7.218;2023-04-16T06:12:18;98977.41;;;15.65;77.98
18275;BME280;19470;49.322;7.218;2023-04-16T06:14:44;98987.53;;;15.94;76.04
18275;BME280;19470;49.322;7.218;2023-04-16T06:17:11;98977.09;;;16.07;75.65
18275;BME280;19470;49.322;7.218;2023-04-16T06:19:37;98983.00;;;15.53;76.67
18275;BME280;19470;49.322;7.218;2023-04-16T06:22:05;98984.09;;;15.83;76.60
18275;BME280;19470;49.322;7.218;2023-04-16T06:24:31;98981.69;;;15.87;76.04
18275;BME280;19470;49.322;7.218;2023-04-16T06:26:58;98982.41;;;15.16;79.09
18275;BME280;19470;49.322;7.218;2023-04-16T06:29:47;98981.66;;;15.46;78.91
18275;BME280;19470;49.322;7.218;2023-04-16T06:32:14;98985.41;;;16.06;76.21
18275;BME280;19470;49.322;7.218;2023-04-16T06:34:41;98992.47;;;14.83;79.39
18275;BME280;19470;49.322;7.218;2023-04-16T06:37:08;98993.03;;;15.05;79.64
18275;BME280;19470;49.322;7.218;2023-04-16T06:39:34;98992.34;;;15.66;77.64
18275;BME280;19470;49.322;7.218;2023-04-16T06:42:01;98994.97;;;15.30;78.14
18275;BME280;19470;49.322;7.218;2023-04-16T06:44:28;98995.00;;;16.07;76.08
18275;BME280;19470;49.322;7.218;2023-04-16T06:46:56;98996.91;;;15.86;75.96
18275;BME280;19470;49.322;7.218;2023-04-16T06:49:22;99004.06;;;15.55;78.31
18275;BME280;19470;49.322;7.218;2023-04-16T06:51:49;99005.44;;;15.57;77.84
18275;BME280;19470;49.322;7.218;2023-04-16T06:54:15;99007.84;;;15.90;75.91
18275;BME280;19470;49.322;7.218;2023-04-16T06:56:43;99011.47;;;16.50;73.89
18275;BME280;19470;49.322;7.218;2023-04-16T06:59:10;99014.69;;;16.57;73.75
18275;BME280;19470;49.322;7.218;2023-04-16T07:01:36;99006.72;;;16.31;74.67
18275;BME280;19470;49.322;7.218;2023-04-16T07:04:04;99015.72;;;16.71;72.79
18275;BME280;19470;49.322;7.218;2023-04-16T07:06:31;99017.47;;;15.96;75.86
18275;BME280;19470;49.322;7.218;2023-04-16T07:08:57;99020.16;;;15.96;76.63
18275;BME280;19470;49.322;7.218;2023-04-16T07:11:24;99022.00;;;16.00;76.69
18275;BME280;19470;49.322;7.218;2023-04-16T07:13:51;99016.69;;;15.95;76.12
18275;BME280;19470;49.322;7.218;2023-04-16T07:16:18;99029.38;;;16.54;73.85
18275;BME280;19470;49.322;7.218;2023-04-16T07:18:44;99026.28;;;15.91;76.22
18275;BME280;19470;49.322;7.218;2023-04-16T07:21:12;99028.66;;;16.13;76.05
18275;BME280;19470;49.322;7.218;2023-04-16T07:23:39;99028.66;;;16.13;75.71
18275;BME280;19470;49.322;7.218;2023-04-16T07:26:05;99025.94;;;16.44;74.50
18275;BME280;19470;49.322;7.218;2023-04-16T07:28:32;99029.94;;;16.41;75.02
18275;BME280;19470;49.322;7.218;2023-04-16T07:30:58;99025.88;;;16.74;73.49
18275;BME280;19470;49.322;7.218;2023-04-16T07:33:25;99032.38;;;16.43;72.98
18275;BME280;19470;49.322;7.218;2023-04-16T07:35:51;99029.50;;;15.83;75.37
18275;BME280;19470;49.322;7.218;2023-04-16T07:38:19;99029.19;;;16.30;72.67
18275;BME280;19470;49.322;7.218;2023-04-16T07:40:46;99018.41;;;16.61;71.24
18275;BME280;19470;49.322;7.218;2023-04-16T07:43:13;99031.59;;;16.22;73.14
18275;BME280;19470;49.322;7.218;2023-04-16T07:45:40;99033.81;;;17.00;69.49
18275;BME280;19470;49.322;7.218;2023-04-16T07:48:06;99038.63;;;16.93;69.57
18275;BME280;19470;49.322;7.218;2023-04-16T07:50:33;99038.19;;;16.70;70.13
18275;BME280;19470;49.322;7.218;2023-04-16T07:53:00;99036.56;;;16.64;70.56
18275;BME280;19470;49.322;7.218;2023-04-16T07:55:27;99044.31;;;16.71;70.50
18275;BME280;19470;49.322;7.218;2023-04-16T07:57:54;99035.47;;;16.85;69.70
18275;BME280;19470;49.322;7.218;2023-04-16T08:00:21;99038.72;;;16.67;69.68
18275;BME280;19470;49.322;7.218;2023-04-16T08:02:47;99043.81;;;17.28;68.36
18275;BME280;19470;49.322;7.218;2023-04-16T08:05:14;99047.38;;;16.23;70.56
18275;BME280;19470;49.322;7.218;2023-04-16T08:07:40;99054.22;;;16.70;70.39
18275;BME280;19470;49.322;7.218;2023-04-16T08:10:07;99044.66;;;16.49;70.84
18275;BME280;19470;49.322;7.218;2023-04-16T08:12:35;99052.94;;;17.27;67.82
18275;BME280;19470;49.322;7.218;2023-04-16T08:15:02;99055.47;;;16.98;68.97
18275;BME280;19470;49.322;7.218;2023-04-16T08:17:29;99050.97;;;16.83;68.34
18275;BME280;19470;49.322;7.218;2023-04-16T08:19:57;99060.50;;;17.15;67.80
18275;BME280;19470;49.322;7.218;2023-04-16T08:22:23;99050.53;;;17.26;67.73
18275;BME280;19470;49.322;7.218;2023-04-16T08:24:50;99059.69;;;17.59;66.64
18275;BME280;19470;49.322;7.218;2023-04-16T08:27:17;99063.78;;;16.97;68.46
18275;BME280;19470;49.322;7.218;2023-04-16T08:29:45;99068.56;;;17.05;68.24
18275;BME280;19470;49.322;7.218;2023-04-16T08:32:12;99062.22;;;16.85;69.28
18275;BME280;19470;49.322;7.218;2023-04-16T08:34:39;99067.78;;;16.99;69.65
18275;BME280;19470;49.322;7.218;2023-04-16T08:37:05;99061.34;;;17.05;67.95
18275;BME280;19470;49.322;7.218;2023-04-16T08:39:32;99071.44;;;17.19;67.52
18275;BME280;19470;49.322;7.218;2023-04-16T08:42:01;99071.41;;;16.39;69.49
18275;BME280;19470;49.322;7.218;2023-04-16T08:44:31;99067.13;;;16.38;69.76
18275;BME280;19470;49.322;7.218;2023-04-16T08:46:59;99071.22;;;17.10;67.51
18275;BME280;19470;49.322;7.218;2023-04-16T08:49:27;99070.97;;;17.56;66.05
18275;BME280;19470;49.322;7.218;2023-04-16T08:51:55;99071.41;;;17.68;66.03
18275;BME280;19470;49.322;7.218;2023-04-16T08:54:31;99079.19;;;17.70;65.35
18275;BME280;19470;49.322;7.218;2023-04-16T08:57:01;99078.28;;;17.40;67.67
18275;BME280;19470;49.322;7.218;2023-04-16T08:59:31;99083.97;;;17.28;66.20
18275;BME280;19470;49.322;7.218;2023-04-16T09:01:59;99083.28;;;17.57;66.03
18275;BME280;19470;49.322;7.218;2023-04-16T09:04:26;99074.88;;;17.29;66.88
18275;BME280;19470;49.322;7.218;2023-04-16T09:06:54;99079.53;;;17.58;66.81
18275;BME280;19470;49.322;7.218;2023-04-16T09:09:21;99084.59;;;17.65;65.91
18275;BME280;19470;49.322;7.218;2023-04-16T09:11:50;99082.50;;;17.56;65.89
18275;BME280;19470;49.322;7.218;2023-04-16T09:14:17;99073.84;;;17.75;65.51
18275;BME280;19470;49.322;7.218;2023-04-16T09:16:44;99079.44;;;17.73;64.44
18275;BME280;19470;49.322;7.218;2023-04-16T09:19:12;99078.19;;;18.00;64.92
18275;BME280;19470;49.322;7.218;2023-04-16T09:21:39;99074.56;;;17.85;64.82
18275;BME280;19470;49.322;7.218;2023-04-16T09:24:07;99080.06;;;17.55;65.46
18275;BME280;19470;49.322;7.218;2023-04-16T09:26:33;99079.91;;;17.36;66.28
18275;BME280;19470;49.322;7.218;2023-04-16T09:29:00;99084.25;;;17.71;65.58
18275;BME280;19470;49.322;7.218;2023-04-16T09:31:27;99088.56;;;17.67;65.67
18275;BME280;19470;49.322;7.218;2023-04-16T09:34:00;99095.97;;;15.74;72.20
18275;BME280;19470;49.322;7.218;2023-04-16T09:36:29;99091.44;;;16.56;70.47
18275;BME280;19470;49.322;7.218;2023-04-16T09:38:57;99084.16;;;16.82;69.15
18275;BME280;19470;49.322;7.218;2023-04-16T09:41:25;99090.78;;;17.05;68.58
18275;BME280;19470;49.322;7.218;2023-04-16T09:43:53;99100.13;;;17.03;67.47
18275;BME280;19470;49.322;7.218;2023-04-16T09:46:21;99097.13;;;17.74;65.65
18275;BME280;19470;49.322;7.218;2023-04-16T09:48:48;99106.41;;;17.37;66.66
18275;BME280;19470;49.322;7.218;2023-04-16T09:51:14;99100.56;;;17.30;67.21
18275;BME280;19470;49.322;7.218;2023-04-16T09:53:42;99100.63;;;17.70;65.22
18275;BME280;19470;49.322;7.218;2023-04-16T09:56:10;99100.09;;;17.18;66.88
18275;BME280;19470;49.322;7.218;2023-04-16T09:58:37;99109.50;;;17.65;65.61
18275;BME280;19470;49.322;7.218;2023-04-16T10:01:06;99101.13;;;18.11;63.68
18275;BME280;19470;49.322;7.218;2023-04-16T10:03:34;99104.00;;;17.41;65.03
18275;BME280;19470;49.322;7.218;2023-04-16T10:06:06;99107.91;;;17.59;64.82
18275;BME280;19470;49.322;7.218;2023-04-16T10:08:33;99113.22;;;17.69;64.56
18275;BME280;19470;49.322;7.218;2023-04-16T10:11:01;99111.81;;;17.82;64.01
18275;BME280;19470;49.322;7.218;2023-04-16T10:13:27;99117.66;;;17.34;65.17
18275;BME280;19470;49.322;7.218;2023-04-16T10:16:13;99112.72;;;17.62;64.78
18275;BME280;19470;49.322;7.218;2023-04-16T10:18:41;99115.28;;;17.82;65.25
18275;BME280;19470;49.322;7.218;2023-04-16T10:21:09;99113.47;;;18.12;63.25
18275;BME280;19470;49.322;7.218;2023-04-16T10:23:37;99117.41;;;17.85;63.80
18275;BME280;19470;49.322;7.218;2023-04-16T10:26:05;99119.00;;;17.86;63.82
18275;BME280;19470;49.322;7.218;2023-04-16T10:28:32;99124.59;;;17.46;65.77
18275;BME280;19470;49.322;7.218;2023-04-16T10:31:01;99117.50;;;17.70;64.99
18275;BME280;19470;49.322;7.218;2023-04-16T10:33:30;99112.78;;;17.52;65.46
18275;BME280;19470;49.322;7.218;2023-04-16T10:36:07;99122.31;;;17.68;65.43
18275;BME280;19470;49.322;7.218;2023-04-16T10:38:37;99121.44;;;17.88;64.70
18275;BME280;19470;49.322;7.218;2023-04-16T10:41:06;99120.47;;;18.08;63.87
18275;BME280;19470;49.322;7.218;2023-04-16T10:43:38;99114.84;;;17.65;64.60
18275;BME280;19470;49.322;7.218;2023-04-16T10:46:21;99123.78;;;18.58;62.53
18275;BME280;19470;49.322;7.218;2023-04-16T10:48:50;99121.69;;;17.37;66.13
18275;BME280;19470;49.322;7.218;2023-04-16T10:51:26;99116.66;;;17.20;66.62
18275;BME280;19470;49.322;7.218;2023-04-16T10:53:54;99114.47;;;17.32;67.21
18275;BME280;19470;49.322;7.218;2023-04-16T10:56:25;99111.84;;;18.45;63.34
18275;BME280;19470;49.322;7.218;2023-04-16T10:58:52;99120.31;;;18.28;64.80
18275;BME280;19470;49.322;7.218;2023-04-16T11:01:28;99115.38;;;17.62;65.66
18275;BME280;19470;49.322;7.218;2023-04-16T11:03:57;99112.94;;;18.73;62.65
18275;BME280;19470;49.322;7.218;2023-04-16T11:06:25;99125.00;;;19.00;62.46
18275;BME280;19470;49.322;7.218;2023-04-16T11:08:52;99123.09;;;18.76;62.56
18275;BME280;19470;49.322;7.218;2023-04-16T11:11:19;99120.19;;;19.21;60.86
18275;BME280;19470;49.322;7.218;2023-04-16T11:13:47;99124.88;;;19.10;60.89
18275;BME280;19470;49.322;7.218;2023-04-16T11:16:15;99123.56;;;18.54;62.61
18275;BME280;19470;49.322;7.218;2023-04-16T11:18:44;99127.41;;;19.68;60.03
18275;BME280;19470;49.322;7.218;2023-04-16T11:21:11;99114.00;;;18.77;60.98
18275;BME280;19470;49.322;7.218;2023-04-16T11:23:47;99124.84;;;19.96;58.88
18275;BME280;19470;49.322;7.218;2023-04-16T11:26:25;99116.09;;;20.04;58.08
18275;BME280;19470;49.322;7.218;2023-04-16T11:28:54;99121.66;;;20.26;58.05
18275;BME280;19470;49.322;7.218;2023-04-16T11:31:21;99124.66;;;19.49;58.88
18275;BME280;19470;49.322;7.218;2023-04-16T11:33:48;99117.88;;;19.33;60.30
18275;BME280;19470;49.322;7.218;2023-04-16T11:36:15;99128.59;;;19.95;58.40
18275;BME280;19470;49.322;7.218;2023-04-16T11:38:41;99127.25;;;19.78;59.37
18275;BME280;19470;49.322;7.218;2023-04-16T11:41:08;99123.59;;;19.88;59.00
18275;BME280;19470;49.322;7.218;2023-04-16T11:43:35;99133.19;;;19.94;57.73
18275;BME280;19470;49.322;7.218;2023-04-16T11:46:04;99118.63;;;19.81;58.39
18275;BME280;19470;49.322;7.218;2023-04-16T11:48:48;99123.53;;;19.74;58.58
18275;BME280;19470;49.322;7.218;2023-04-16T11:51:15;99127.16;;;19.64;59.41
18275;BME280;19470;49.322;7.218;2023-04-16T11:53:49;99121.69;;;19.51;59.11
18275;BME280;19470;49.322;7.218;2023-04-16T11:56:24;99120.81;;;19.36;59.59
18275;BME280;19470;49.322;7.218;2023-04-16T11:59:11;99128.19;;;19.87;59.41
18275;BME280;19470;49.322;7.218;2023-04-16T12:01:40;99120.81;;;19.36;59.64
18275;BME280;19470;49.322;7.218;2023-04-16T12:04:12;99121.38;;;19.76;60.05
18275;BME280;19470;49.322;7.218;2023-04-16T12:06:39;99124.69;;;20.06;59.01
18275;BME280;19470;49.322;7.218;2023-04-16T12:09:21;99126.00;;;19.89;59.15
18275;BME280;19470;49.322;7.218;2023-04-16T12:11:48;99128.66;;;20.08;58.40
18275;BME280;19470;49.322;7.218;2023-04-16T12:14:14;99118.56;;;19.44;58.90
18275;BME280;19470;49.322;7.218;2023-04-16T12:16:42;99122.78;;;19.50;60.03
18275;BME280;19470;49.322;7.218;2023-04-16T12:19:10;99123.34;;;19.04;60.92
18275;BME280;19470;49.322;7.218;2023-04-16T12:21:38;99128.19;;;19.87;60.22
18275;BME280;19470;49.322;7.218;2023-04-16T12:24:06;99119.47;;;20.47;57.62
18275;BME280;19470;49.322;7.218;2023-04-16T12:26:40;99120.81;;;21.05;56.11
18275;BME280;19470;49.322;7.218;2023-04-16T12:29:17;99119.66;;;19.99;58.46
18275;BME280;19470;49.322;7.218;2023-04-16T12:31:46;99121.28;;;20.52;57.62
18275;BME280;19470;49.322;7.218;2023-04-16T12:34:12;99115.75;;;20.43;55.95
18275;BME280;19470;49.322;7.218;2023-04-16T12:36:40;99115.53;;;21.00;56.72
18275;BME280;19470;49.322;7.218;2023-04-16T12:39:07;99126.75;;;20.60;56.57
18275;BME280;19470;49.322;7.218;2023-04-16T12:41:36;99116.50;;;21.45;54.92
18275;BME280;19470;49.322;7.218;2023-04-16T12:44:04;99121.31;;;21.07;55.89
18275;BME280;19470;49.322;7.218;2023-04-16T12:46:33;99116.53;;;21.04;57.22
18275;BME280;19470;49.322;7.218;2023-04-16T12:49:01;99120.72;;;21.10;56.85
18275;BME280;19470;49.322;7.218;2023-04-16T12:51:28;99117.69;;;21.53;55.21
18275;BME280;19470;49.322;7.218;2023-04-16T12:53:55;99114.81;;;21.85;53.07
18275;BME280;19470;49.322;7.218;2023-04-16T12:56:21;99113.09;;;21.89;52.74
18275;BME280;19470;49.322;7.218;2023-04-16T12:58:48;99110.53;;;21.84;53.36
18275;BME280;19470;49.322;7.218;2023-04-16T13:01:16;99113.69;;;20.54;54.89
18275;BME280;19470;49.322;7.218;2023-04-16T13:03:43;99108.63;;;20.66;56.97